Ardmore, Maryland
Current Conditions -  °F | °C
As of 11:50 PM on Wednesday 22 Oct 2014 (Local Time) from KCGS Reporting Station
Overcast Overcast  
Wind Chill: 12°   Ceiling: 6000
Heat Index: 12°   Visibility: 10mi
Dew Point:   Wind: 7mph
Humidity: 72%   Direction: 320°NW
Pressure: 29.92"   Gusts: NA
Location:  38.9183°N, 76.8721°W
Report Text: KCGS 230350Z AUTO 32006KT 10SM OVC060 12/07 A2992 RMK AO1
Loading
Personal Weather Stations






























Interactive Weather Map
Tropical Storm Tracking
New forecast layout! Learn more

10-Day Weather Forecast

Advertisements
Track Severe Weather on mobile